Terminal Aerodrome Forecast
Issued by NWS

Home | Current Version | Previous Version | Text Only | Print | Product List | Glossary On
Versions: 1 2 3 4 5 6 7 8 9 10 11 12 13 14 15 16 17 18 19 20 21
849
FTUS46 KSEW 291739
TAFCLM
TAF
KCLM 291739Z 2918/3018 32008KT P6SM OVC007
     FM292000 31010KT P6SM VCFG FEW010
     FM300200 29012G22KT P6SM SCT014
     FM300700 30007KT P6SM OVC012
     FM301400 30007KT P6SM OVC009=

USA.gov is the U.S. government's official web portal to all federal, state and local government web resources and services.